sensor_id;sensor_type;location;lat;lon;timestamp;P1;durP1;ratioP1;P2;durP2;ratioP2
37455;SDS011;23316;50.718;7.328;2024-02-14T00:00:13;3.80;;;1.60;;
37455;SDS011;23316;50.718;7.328;2024-02-14T00:02:40;2.22;;;1.60;;
37455;SDS011;23316;50.718;7.328;2024-02-14T00:05:07;3.35;;;1.30;;
37455;SDS011;23316;50.718;7.328;2024-02-14T00:07:36;2.30;;;1.40;;
37455;SDS011;23316;50.718;7.328;2024-02-14T00:10:03;2.22;;;1.30;;
37455;SDS011;23316;50.718;7.328;2024-02-14T00:12:32;3.70;;;1.77;;
37455;SDS011;23316;50.718;7.328;2024-02-14T00:14:59;2.80;;;1.65;;
37455;SDS011;23316;50.718;7.328;2024-02-14T00:17:28;3.88;;;1.85;;
37455;SDS011;23316;50.718;7.328;2024-02-14T00:19:55;3.38;;;1.50;;
37455;SDS011;23316;50.718;7.328;2024-02-14T00:22:23;2.03;;;1.45;;
37455;SDS011;23316;50.718;7.328;2024-02-14T00:24:50;2.13;;;1.52;;
37455;SDS011;23316;50.718;7.328;2024-02-14T00:27:17;2.10;;;1.40;;
37455;SDS011;23316;50.718;7.328;2024-02-14T00:29:44;3.20;;;1.63;;
37455;SDS011;23316;50.718;7.328;2024-02-14T00:32:12;2.83;;;1.60;;
37455;SDS011;23316;50.718;7.328;2024-02-14T00:34:40;2.88;;;1.48;;
37455;SDS011;23316;50.718;7.328;2024-02-14T00:37:08;3.58;;;1.48;;
37455;SDS011;23316;50.718;7.328;2024-02-14T00:39:36;2.53;;;1.58;;
37455;SDS011;23316;50.718;7.328;2024-02-14T00:42:03;1.95;;;1.52;;
37455;SDS011;23316;50.718;7.328;2024-02-14T00:44:31;2.95;;;1.27;;
37455;SDS011;23316;50.718;7.328;2024-02-14T00:46:58;2.65;;;1.27;;
37455;SDS011;23316;50.718;7.328;2024-02-14T00:49:26;2.53;;;1.40;;
37455;SDS011;23316;50.718;7.328;2024-02-14T00:51:55;2.47;;;1.40;;
37455;SDS011;23316;50.718;7.328;2024-02-14T00:54:22;2.20;;;1.52;;
37455;SDS011;23316;50.718;7.328;2024-02-14T00:56:50;2.60;;;1.50;;
37455;SDS011;23316;50.718;7.328;2024-02-14T00:59:17;3.58;;;1.38;;
37455;SDS011;23316;50.718;7.328;2024-02-14T01:01:44;1.73;;;1.25;;
37455;SDS011;23316;50.718;7.328;2024-02-14T01:04:11;1.88;;;1.52;;
37455;SDS011;23316;50.718;7.328;2024-02-14T01:06:38;2.05;;;1.23;;
37455;SDS011;23316;50.718;7.328;2024-02-14T01:09:07;1.83;;;1.15;;
37455;SDS011;23316;50.718;7.328;2024-02-14T01:11:35;2.10;;;1.00;;
37455;SDS011;23316;50.718;7.328;2024-02-14T01:14:03;1.92;;;1.08;;
37455;SDS011;23316;50.718;7.328;2024-02-14T01:16:31;2.00;;;1.20;;
37455;SDS011;23316;50.718;7.328;2024-02-14T01:18:58;1.67;;;1.20;;
37455;SDS011;23316;50.718;7.328;2024-02-14T01:21:25;1.90;;;1.17;;
37455;SDS011;23316;50.718;7.328;2024-02-14T01:23:53;1.67;;;1.10;;
37455;SDS011;23316;50.718;7.328;2024-02-14T01:26:22;0.85;;;0.82;;
37455;SDS011;23316;50.718;7.328;2024-02-14T01:28:49;2.30;;;1.33;;
37455;SDS011;23316;50.718;7.328;2024-02-14T01:31:16;3.35;;;1.30;;
37455;SDS011;23316;50.718;7.328;2024-02-14T01:33:43;1.63;;;0.90;;
37455;SDS011;23316;50.718;7.328;2024-02-14T01:36:11;2.65;;;1.00;;
37455;SDS011;23316;50.718;7.328;2024-02-14T01:38:38;0.82;;;0.80;;
37455;SDS011;23316;50.718;7.328;2024-02-14T01:41:06;4.55;;;0.85;;
37455;SDS011;23316;50.718;7.328;2024-02-14T02:43:17;3.05;;;0.60;;
37455;SDS011;23316;50.718;7.328;2024-02-14T02:45:45;4.55;;;0.77;;
37455;SDS011;23316;50.718;7.328;2024-02-14T02:48:12;2.15;;;0.60;;
37455;SDS011;23316;50.718;7.328;2024-02-14T02:50:41;1.98;;;0.60;;
37455;SDS011;23316;50.718;7.328;2024-02-14T02:53:10;1.63;;;0.70;;
37455;SDS011;23316;50.718;7.328;2024-02-14T02:55:37;2.90;;;0.70;;
37455;SDS011;23316;50.718;7.328;2024-02-14T02:58:04;1.98;;;0.60;;
37455;SDS011;23316;50.718;7.328;2024-02-14T03:00:33;6.38;;;0.80;;
37455;SDS011;23316;50.718;7.328;2024-02-14T03:03:01;1.13;;;0.65;;
37455;SDS011;23316;50.718;7.328;2024-02-14T03:05:30;2.25;;;0.40;;
37455;SDS011;23316;50.718;7.328;2024-02-14T03:07:59;0.85;;;0.63;;
37455;SDS011;23316;50.718;7.328;2024-02-14T03:10:26;4.97;;;0.75;;
37455;SDS011;23316;50.718;7.328;2024-02-14T03:12:55;0.77;;;0.55;;
37455;SDS011;23316;50.718;7.328;2024-02-14T03:15:22;1.17;;;0.60;;
37455;SDS011;23316;50.718;7.328;2024-02-14T03:17:52;0.60;;;0.35;;
37455;SDS011;23316;50.718;7.328;2024-02-14T03:20:19;0.65;;;0.30;;
37455;SDS011;23316;50.718;7.328;2024-02-14T03:22:46;0.98;;;0.52;;
37455;SDS011;23316;50.718;7.328;2024-02-14T03:25:14;1.35;;;0.60;;
37455;SDS011;23316;50.718;7.328;2024-02-14T03:27:43;1.35;;;0.43;;
37455;SDS011;23316;50.718;7.328;2024-02-14T03:30:12;2.20;;;0.47;;
37455;SDS011;23316;50.718;7.328;2024-02-14T03:32:42;1.15;;;0.63;;
37455;SDS011;23316;50.718;7.328;2024-02-14T03:35:11;0.98;;;0.57;;
37455;SDS011;23316;50.718;7.328;2024-02-14T03:37:40;0.88;;;0.45;;
37455;SDS011;23316;50.718;7.328;2024-02-14T03:40:07;1.42;;;0.70;;
37455;SDS011;23316;50.718;7.328;2024-02-14T03:42:37;0.95;;;0.50;;
37455;SDS011;23316;50.718;7.328;2024-02-14T03:45:05;0.73;;;0.50;;
37455;SDS011;23316;50.718;7.328;2024-02-14T03:47:34;0.68;;;0.47;;
37455;SDS011;23316;50.718;7.328;2024-02-14T03:53:28;1.00;;;0.40;;
37455;SDS011;23316;50.718;7.328;2024-02-14T06:51:03;8.18;;;5.07;;
37455;SDS011;23316;50.718;7.328;2024-02-14T06:53:32;7.43;;;4.35;;
37455;SDS011;23316;50.718;7.328;2024-02-14T06:56:00;8.63;;;4.45;;
37455;SDS011;23316;50.718;7.328;2024-02-14T06:58:27;10.48;;;3.13;;
37455;SDS011;23316;50.718;7.328;2024-02-14T07:00:55;5.45;;;2.50;;
37455;SDS011;23316;50.718;7.328;2024-02-14T07:03:22;4.15;;;2.13;;
37455;SDS011;23316;50.718;7.328;2024-02-14T07:05:49;8.98;;;1.80;;
37455;SDS011;23316;50.718;7.328;2024-02-14T07:08:19;7.22;;;1.80;;
37455;SDS011;23316;50.718;7.328;2024-02-14T07:10:46;5.10;;;1.60;;
37455;SDS011;23316;50.718;7.328;2024-02-14T07:13:13;4.97;;;1.60;;
37455;SDS011;23316;50.718;7.328;2024-02-14T07:15:40;5.10;;;1.55;;
37455;SDS011;23316;50.718;7.328;2024-02-14T07:18:07;9.38;;;1.65;;
37455;SDS011;23316;50.718;7.328;2024-02-14T07:20:35;4.43;;;1.65;;
37455;SDS011;23316;50.718;7.328;2024-02-14T07:23:02;2.20;;;1.50;;
37455;SDS011;23316;50.718;7.328;2024-02-14T07:25:32;2.60;;;1.50;;
37455;SDS011;23316;50.718;7.328;2024-02-14T07:27:59;5.40;;;1.73;;
37455;SDS011;23316;50.718;7.328;2024-02-14T07:30:26;3.50;;;1.25;;
37455;SDS011;23316;50.718;7.328;2024-02-14T07:32:53;2.05;;;1.15;;
37455;SDS011;23316;50.718;7.328;2024-02-14T07:35:20;5.82;;;1.13;;
37455;SDS011;23316;50.718;7.328;2024-02-14T07:37:48;3.35;;;1.00;;
37455;SDS011;23316;50.718;7.328;2024-02-14T07:40:15;6.38;;;1.95;;
37455;SDS011;23316;50.718;7.328;2024-02-14T07:42:44;8.48;;;2.30;;
37455;SDS011;23316;50.718;7.328;2024-02-14T07:45:11;6.90;;;2.22;;
37455;SDS011;23316;50.718;7.328;2024-02-14T07:47:38;6.63;;;2.20;;
37455;SDS011;23316;50.718;7.328;2024-02-14T07:50:07;6.97;;;2.17;;
37455;SDS011;23316;50.718;7.328;2024-02-14T07:52:34;9.45;;;2.65;;
37455;SDS011;23316;50.718;7.328;2024-02-14T07:55:02;10.73;;;2.47;;
37455;SDS011;23316;50.718;7.328;2024-02-14T07:57:29;11.10;;;2.97;;
37455;SDS011;23316;50.718;7.328;2024-02-14T07:59:58;6.18;;;2.30;;
37455;SDS011;23316;50.718;7.328;2024-02-14T08:02:25;7.30;;;2.03;;
37455;SDS011;23316;50.718;7.328;2024-02-14T08:04:53;7.97;;;2.00;;
37455;SDS011;23316;50.718;7.328;2024-02-14T08:07:20;4.65;;;2.00;;
37455;SDS011;23316;50.718;7.328;2024-02-14T08:09:47;5.30;;;2.00;;
37455;SDS011;23316;50.718;7.328;2024-02-14T08:12:14;3.85;;;1.70;;
37455;SDS011;23316;50.718;7.328;2024-02-14T08:14:41;2.78;;;1.23;;
37455;SDS011;23316;50.718;7.328;2024-02-14T08:17:10;4.00;;;1.40;;
37455;SDS011;23316;50.718;7.328;2024-02-14T08:19:37;3.80;;;1.30;;
37455;SDS011;23316;50.718;7.328;2024-02-14T08:22:05;5.78;;;2.17;;
37455;SDS011;23316;50.718;7.328;2024-02-14T08:24:32;6.97;;;1.92;;
37455;SDS011;23316;50.718;7.328;2024-02-14T08:26:59;4.95;;;1.58;;
37455;SDS011;23316;50.718;7.328;2024-02-14T08:29:27;3.95;;;1.50;;
37455;SDS011;23316;50.718;7.328;2024-02-14T08:31:54;3.88;;;1.40;;
37455;SDS011;23316;50.718;7.328;2024-02-14T08:34:23;3.90;;;1.50;;
37455;SDS011;23316;50.718;7.328;2024-02-14T08:36:50;7.35;;;1.60;;
37455;SDS011;23316;50.718;7.328;2024-02-14T08:39:17;6.47;;;1.38;;
37455;SDS011;23316;50.718;7.328;2024-02-14T08:41:45;6.32;;;1.70;;
37455;SDS011;23316;50.718;7.328;2024-02-14T08:44:12;7.45;;;2.13;;
37455;SDS011;23316;50.718;7.328;2024-02-14T08:46:40;3.83;;;1.70;;
37455;SDS011;23316;50.718;7.328;2024-02-14T08:49:08;2.65;;;1.40;;
37455;SDS011;23316;50.718;7.328;2024-02-14T08:51:36;4.28;;;1.30;;
37455;SDS011;23316;50.718;7.328;2024-02-14T08:54:04;5.15;;;1.40;;
37455;SDS011;23316;50.718;7.328;2024-02-14T08:56:31;3.40;;;1.55;;
37455;SDS011;23316;50.718;7.328;2024-02-14T08:58:59;1.70;;;1.05;;
37455;SDS011;23316;50.718;7.328;2024-02-14T09:01:27;3.88;;;1.08;;
37455;SDS011;23316;50.718;7.328;2024-02-14T09:03:55;3.00;;;1.35;;
37455;SDS011;23316;50.718;7.328;2024-02-14T09:06:22;15.65;;;2.05;;
37455;SDS011;23316;50.718;7.328;2024-02-14T09:08:51;4.53;;;1.42;;
37455;SDS011;23316;50.718;7.328;2024-02-14T09:11:18;2.45;;;1.02;;
37455;SDS011;23316;50.718;7.328;2024-02-14T09:13:46;13.50;;;2.17;;
37455;SDS011;23316;50.718;7.328;2024-02-14T09:16:14;4.57;;;1.55;;
37455;SDS011;23316;50.718;7.328;2024-02-14T09:18:42;3.22;;;1.20;;
37455;SDS011;23316;50.718;7.328;2024-02-14T09:21:11;2.92;;;1.08;;
37455;SDS011;23316;50.718;7.328;2024-02-14T09:23:41;2.58;;;0.95;;
37455;SDS011;23316;50.718;7.328;2024-02-14T09:26:12;1.95;;;0.80;;
37455;SDS011;23316;50.718;7.328;2024-02-14T09:28:39;4.53;;;1.25;;
37455;SDS011;23316;50.718;7.328;2024-02-14T09:31:07;4.50;;;1.05;;
37455;SDS011;23316;50.718;7.328;2024-02-14T09:33:36;2.53;;;1.10;;
37455;SDS011;23316;50.718;7.328;2024-02-14T09:36:03;3.20;;;1.00;;
37455;SDS011;23316;50.718;7.328;2024-02-14T09:38:31;0.70;;;0.70;;
37455;SDS011;23316;50.718;7.328;2024-02-14T09:41:02;1.92;;;1.05;;
37455;SDS011;23316;50.718;7.328;2024-02-14T09:43:38;2.60;;;1.10;;
37455;SDS011;23316;50.718;7.328;2024-02-14T09:46:08;1.17;;;0.70;;
37455;SDS011;23316;50.718;7.328;2024-02-14T09:48:35;2.00;;;1.08;;
37455;SDS011;23316;50.718;7.328;2024-02-14T09:51:05;8.50;;;4.63;;
37455;SDS011;23316;50.718;7.328;2024-02-14T09:53:33;7.30;;;3.53;;
37455;SDS011;23316;50.718;7.328;2024-02-14T09:56:01;5.55;;;2.20;;
37455;SDS011;23316;50.718;7.328;2024-02-14T09:58:29;4.88;;;2.90;;
37455;SDS011;23316;50.718;7.328;2024-02-14T10:00:59;3.70;;;2.08;;
37455;SDS011;23316;50.718;7.328;2024-02-14T10:03:26;4.25;;;2.20;;
37455;SDS011;23316;50.718;7.328;2024-02-14T10:05:54;5.40;;;2.25;;
37455;SDS011;23316;50.718;7.328;2024-02-14T10:08:21;6.60;;;3.00;;
37455;SDS011;23316;50.718;7.328;2024-02-14T10:10:49;5.03;;;2.20;;
37455;SDS011;23316;50.718;7.328;2024-02-14T10:13:17;4.60;;;1.90;;
37455;SDS011;23316;50.718;7.328;2024-02-14T10:15:44;4.20;;;1.60;;
37455;SDS011;23316;50.718;7.328;2024-02-14T10:18:13;3.00;;;1.50;;
37455;SDS011;23316;50.718;7.328;2024-02-14T10:20:51;8.85;;;1.75;;
37455;SDS011;23316;50.718;7.328;2024-02-14T10:23:19;13.02;;;1.45;;
37455;SDS011;23316;50.718;7.328;2024-02-14T10:25:48;6.57;;;1.95;;
37455;SDS011;23316;50.718;7.328;2024-02-14T10:28:15;5.45;;;1.50;;
37455;SDS011;23316;50.718;7.328;2024-02-14T10:30:45;2.83;;;0.90;;
37455;SDS011;23316;50.718;7.328;2024-02-14T10:33:14;2.30;;;1.02;;
37455;SDS011;23316;50.718;7.328;2024-02-14T10:35:42;1.90;;;0.93;;
37455;SDS011;23316;50.718;7.328;2024-02-14T10:38:09;4.47;;;0.90;;
37455;SDS011;23316;50.718;7.328;2024-02-14T10:40:37;4.80;;;0.93;;
37455;SDS011;23316;50.718;7.328;2024-02-14T10:43:05;17.17;;;2.28;;
37455;SDS011;23316;50.718;7.328;2024-02-14T10:45:34;6.93;;;1.33;;
37455;SDS011;23316;50.718;7.328;2024-02-14T10:48:03;8.10;;;1.10;;
37455;SDS011;23316;50.718;7.328;2024-02-14T10:50:33;9.13;;;1.58;;
37455;SDS011;23316;50.718;7.328;2024-02-14T10:53:03;13.48;;;1.67;;
37455;SDS011;23316;50.718;7.328;2024-02-14T10:55:33;10.43;;;1.70;;
37455;SDS011;23316;50.718;7.328;2024-02-14T10:58:00;6.05;;;1.92;;
37455;SDS011;23316;50.718;7.328;2024-02-14T11:00:28;6.90;;;2.17;;
37455;SDS011;23316;50.718;7.328;2024-02-14T11:02:57;5.22;;;1.52;;
37455;SDS011;23316;50.718;7.328;2024-02-14T11:05:26;5.93;;;1.52;;
37455;SDS011;23316;50.718;7.328;2024-02-14T11:07:54;2.92;;;1.40;;
37455;SDS011;23316;50.718;7.328;2024-02-14T11:10:22;10.00;;;2.10;;
37455;SDS011;23316;50.718;7.328;2024-02-14T11:12:49;5.03;;;1.95;;
37455;SDS011;23316;50.718;7.328;2024-02-14T11:15:17;6.60;;;2.42;;
37455;SDS011;23316;50.718;7.328;2024-02-14T11:17:46;7.07;;;2.88;;
37455;SDS011;23316;50.718;7.328;2024-02-14T11:20:16;5.25;;;2.33;;
37455;SDS011;23316;50.718;7.328;2024-02-14T11:22:52;5.25;;;2.20;;
37455;SDS011;23316;50.718;7.328;2024-02-14T11:25:22;4.93;;;1.92;;
37455;SDS011;23316;50.718;7.328;2024-02-14T11:27:55;7.85;;;2.53;;
37455;SDS011;23316;50.718;7.328;2024-02-14T11:30:33;11.30;;;2.38;;
37455;SDS011;23316;50.718;7.328;2024-02-14T11:33:16;10.30;;;2.83;;
37455;SDS011;23316;50.718;7.328;2024-02-14T11:35:45;9.40;;;2.05;;
37455;SDS011;23316;50.718;7.328;2024-02-14T11:38:14;7.28;;;1.92;;
37455;SDS011;23316;50.718;7.328;2024-02-14T11:40:42;6.57;;;1.58;;
37455;SDS011;23316;50.718;7.328;2024-02-14T11:43:11;6.53;;;1.60;;
37455;SDS011;23316;50.718;7.328;2024-02-14T11:45:41;5.20;;;1.23;;
37455;SDS011;23316;50.718;7.328;2024-02-14T11:48:09;4.40;;;1.23;;
37455;SDS011;23316;50.718;7.328;2024-02-14T11:50:38;1.60;;;1.20;;
37455;SDS011;23316;50.718;7.328;2024-02-14T11:53:07;4.45;;;1.00;;
37455;SDS011;23316;50.718;7.328;2024-02-14T11:55:37;2.55;;;1.10;;
37455;SDS011;23316;50.718;7.328;2024-02-14T11:58:07;4.43;;;1.40;;
37455;SDS011;23316;50.718;7.328;2024-02-14T12:00:36;4.63;;;1.08;;
37455;SDS011;23316;50.718;7.328;2024-02-14T12:03:06;8.02;;;1.23;;
37455;SDS011;23316;50.718;7.328;2024-02-14T12:05:34;3.97;;;1.10;;
37455;SDS011;23316;50.718;7.328;2024-02-14T12:08:03;13.43;;;1.98;;
37455;SDS011;23316;50.718;7.328;2024-02-14T12:10:32;12.23;;;1.88;;
37455;SDS011;23316;50.718;7.328;2024-02-14T12:13:06;9.75;;;1.10;;
37455;SDS011;23316;50.718;7.328;2024-02-14T12:15:37;16.08;;;2.28;;
37455;SDS011;23316;50.718;7.328;2024-02-14T12:18:06;13.23;;;1.63;;
37455;SDS011;23316;50.718;7.328;2024-02-14T12:20:35;5.63;;;1.80;;
37455;SDS011;23316;50.718;7.328;2024-02-14T12:23:03;4.95;;;1.10;;
37455;SDS011;23316;50.718;7.328;2024-02-14T12:25:31;4.22;;;1.10;;
37455;SDS011;23316;50.718;7.328;2024-02-14T12:27:59;3.45;;;0.80;;
37455;SDS011;23316;50.718;7.328;2024-02-14T12:30:41;5.50;;;1.00;;
37455;SDS011;23316;50.718;7.328;2024-02-14T12:33:10;5.05;;;0.93;;
37455;SDS011;23316;50.718;7.328;2024-02-14T12:35:40;4.43;;;0.95;;
37455;SDS011;23316;50.718;7.328;2024-02-14T12:38:11;5.07;;;0.85;;
37455;SDS011;23316;50.718;7.328;2024-02-14T12:40:39;1.48;;;0.98;;
37455;SDS011;23316;50.718;7.328;2024-02-14T12:43:09;2.15;;;0.85;;
37455;SDS011;23316;50.718;7.328;2024-02-14T12:45:39;4.20;;;0.93;;
37455;SDS011;23316;50.718;7.328;2024-02-14T12:48:07;3.40;;;0.90;;
37455;SDS011;23316;50.718;7.328;2024-02-14T12:50:34;3.15;;;0.90;;
37455;SDS011;23316;50.718;7.328;2024-02-14T12:53:03;4.72;;;0.68;;
37455;SDS011;23316;50.718;7.328;2024-02-14T13:12:45;11.70;;;1.50;;
37455;SDS011;23316;50.718;7.328;2024-02-14T13:15:13;19.25;;;2.55;;
37455;SDS011;23316;50.718;7.328;2024-02-14T13:17:41;8.60;;;1.42;;
37455;SDS011;23316;50.718;7.328;2024-02-14T13:20:08;4.53;;;0.90;;
37455;SDS011;23316;50.718;7.328;2024-02-14T13:22:36;6.72;;;0.95;;
37455;SDS011;23316;50.718;7.328;2024-02-14T13:25:04;13.27;;;0.93;;
37455;SDS011;23316;50.718;7.328;2024-02-14T13:27:32;13.85;;;1.52;;
37455;SDS011;23316;50.718;7.328;2024-02-14T13:30:01;7.28;;;1.17;;
37455;SDS011;23316;50.718;7.328;2024-02-14T13:32:28;4.40;;;0.90;;
37455;SDS011;23316;50.718;7.328;2024-02-14T13:34:55;9.02;;;1.00;;
37455;SDS011;23316;50.718;7.328;2024-02-14T13:37:23;5.80;;;1.60;;
37455;SDS011;23316;50.718;7.328;2024-02-14T13:39:50;2.67;;;1.00;;
37455;SDS011;23316;50.718;7.328;2024-02-14T13:42:18;2.83;;;1.00;;
37455;SDS011;23316;50.718;7.328;2024-02-14T13:44:45;8.45;;;1.17;;
37455;SDS011;23316;50.718;7.328;2024-02-14T13:47:14;4.53;;;0.80;;
37455;SDS011;23316;50.718;7.328;2024-02-14T13:49:44;7.60;;;0.73;;
37455;SDS011;23316;50.718;7.328;2024-02-14T13:52:11;1.60;;;0.82;;
37455;SDS011;23316;50.718;7.328;2024-02-14T13:54:41;1.35;;;0.57;;
37455;SDS011;23316;50.718;7.328;2024-02-14T13:57:08;3.35;;;0.70;;
37455;SDS011;23316;50.718;7.328;2024-02-14T13:59:37;3.63;;;0.90;;
37455;SDS011;23316;50.718;7.328;2024-02-14T14:02:04;3.40;;;0.70;;
37455;SDS011;23316;50.718;7.328;2024-02-14T14:04:33;3.55;;;0.90;;
37455;SDS011;23316;50.718;7.328;2024-02-14T14:07:01;3.30;;;0.70;;
37455;SDS011;23316;50.718;7.328;2024-02-14T14:09:29;2.35;;;0.45;;
37455;SDS011;23316;50.718;7.328;2024-02-14T14:11:58;2.53;;;0.68;;
37455;SDS011;23316;50.718;7.328;2024-02-14T14:14:26;3.55;;;0.75;;
37455;SDS011;23316;50.718;7.328;2024-02-14T14:16:54;1.50;;;0.55;;
37455;SDS011;23316;50.718;7.328;2024-02-14T14:19:23;1.02;;;0.50;;
37455;SDS011;23316;50.718;7.328;2024-02-14T14:21:51;6.20;;;0.80;;
37455;SDS011;23316;50.718;7.328;2024-02-14T14:24:20;1.73;;;0.70;;
37455;SDS011;23316;50.718;7.328;2024-02-14T14:26:48;2.92;;;0.73;;
37455;SDS011;23316;50.718;7.328;2024-02-14T14:29:16;1.63;;;0.65;;
37455;SDS011;23316;50.718;7.328;2024-02-14T14:31:44;16.73;;;1.05;;
37455;SDS011;23316;50.718;7.328;2024-02-14T14:34:11;2.97;;;0.75;;
37455;SDS011;23316;50.718;7.328;2024-02-14T14:36:38;5.03;;;1.10;;
37455;SDS011;23316;50.718;7.328;2024-02-14T14:39:07;5.53;;;1.08;;
37455;SDS011;23316;50.718;7.328;2024-02-14T14:41:36;9.25;;;2.90;;
37455;SDS011;23316;50.718;7.328;2024-02-14T14:44:04;11.75;;;2.90;;
37455;SDS011;23316;50.718;7.328;2024-02-14T14:46:31;5.38;;;2.10;;
37455;SDS011;23316;50.718;7.328;2024-02-14T14:49:00;8.75;;;2.35;;
37455;SDS011;23316;50.718;7.328;2024-02-14T14:51:28;9.18;;;2.33;;
37455;SDS011;23316;50.718;7.328;2024-02-14T14:53:56;7.63;;;2.53;;
37455;SDS011;23316;50.718;7.328;2024-02-14T14:56:24;11.13;;;2.60;;
37455;SDS011;23316;50.718;7.328;2024-02-14T14:58:52;12.23;;;2.83;;
37455;SDS011;23316;50.718;7.328;2024-02-14T15:01:19;11.10;;;2.05;;
37455;SDS011;23316;50.718;7.328;2024-02-14T15:34:40;3.72;;;1.20;;
